Terminal Aerodrome Forecast
Issued by NWS

Home | Current Version | Previous Version | Text Only | Print | Product List | Glossary On
Versions: 1 2 3 4 5 6 7 8 9 10 11 12 13 14 15 16 17 18 19 20 21
000
FTUS43 KDTX 222300
TAFDET
TAF
KDET 222325Z 2300/2324 06007KT P6SM SCT040 BKN100
     FM230800 05005KT 4SM BR FEW015 SCT120
     FM231300 06004KT P6SM SCT040 SCT150
     FM232300 12006KT P6SM SCT060=

USA.gov is the U.S. government's official web portal to all federal, state and local government web resources and services.